KTIK/TIK METAR and TAF weather

Enter ICAO airport designator
Station Type Date Time Source
KTIK METAR 2019/08/24 16:56 UTC NOAA

KTIK 241656Z 15004KT 10SM SCT009 SCT150 SCT180 26/22 A2999 RMK AO2A SLP150 T02630221


Station Type Date Time Source
KTIK Decoded METAR 2019/08/24 16:56 UTC NOAA

Station name not available
Aug 24, 2019 - 12:56 PM EDT / 2019.08.24 1656 UTC
Wind: from the SSE (150 degrees) at 5 MPH (4 KT):0
Visibility: 10 mile(s):0
Sky conditions: partly cloudy
Temperature: 79.3 F (26.3 C)
Dew Point: 71.8 F (22.1 C)
Relative Humidity: 77%
Pressure (altimeter): 29.99 in. Hg (1015 hPa)
ob: KTIK 241656Z 15004KT 10SM SCT009 SCT150 SCT180 26/22 A2999 RMK AO2A SLP150 T02630221
cycle: 17

Station Type Date Time Source
KTIK TAF 2019/08/24 17:09 UTC NOAA

TAF TAF KTIK 241700Z 2417/2523 13009KT 9999 SCT010 SCT150 QNH2992INS
BECMG 2418/2419 13009KT 9999 SCT020 BKN050 QNH2990INS
BECMG 2511/2512 15012KT 9000 -SHRA SCT008 BKN020 QNH2989INS
TEMPO 2514/2518 VRB25G40KT 6000 TSRA BKN008CB OVC010
BECMG 2517/2518 17012G18KT 9999 NSW SCT020 BKN050 QNH2975INS TX29/2420Z TN21/2511Z

Example: see airport list